sensor_id;sensor_type;location;lat;lon;timestamp;P1;durP1;ratioP1;P2;durP2;ratioP2
66298;SDS011;53098;47.658;8.578;2022-10-16T00:01:16;4.82;;;1.30;;
66298;SDS011;53098;47.658;8.578;2022-10-16T00:03:43;5.63;;;1.80;;
66298;SDS011;53098;47.658;8.578;2022-10-16T00:06:09;5.45;;;1.20;;
66298;SDS011;53098;47.658;8.578;2022-10-16T00:08:35;7.38;;;1.30;;
66298;SDS011;53098;47.658;8.578;2022-10-16T00:11:05;10.43;;;1.50;;
66298;SDS011;53098;47.658;8.578;2022-10-16T00:13:31;5.20;;;1.23;;
66298;SDS011;53098;47.658;8.578;2022-10-16T00:15:57;6.55;;;2.20;;
66298;SDS011;53098;47.658;8.578;2022-10-16T00:18:24;5.07;;;1.55;;
66298;SDS011;53098;47.658;8.578;2022-10-16T00:20:50;5.93;;;1.45;;
66298;SDS011;53098;47.658;8.578;2022-10-16T00:23:15;8.65;;;1.70;;
66298;SDS011;53098;47.658;8.578;2022-10-16T00:25:40;14.23;;;1.70;;
66298;SDS011;53098;47.658;8.578;2022-10-16T00:28:06;6.13;;;2.20;;
66298;SDS011;53098;47.658;8.578;2022-10-16T00:30:32;3.65;;;1.30;;
66298;SDS011;53098;47.658;8.578;2022-10-16T00:32:57;5.78;;;1.92;;
66298;SDS011;53098;47.658;8.578;2022-10-16T00:35:23;5.22;;;2.08;;
66298;SDS011;53098;47.658;8.578;2022-10-16T00:37:48;9.20;;;2.07;;
66298;SDS011;53098;47.658;8.578;2022-10-16T00:40:14;9.77;;;1.65;;
66298;SDS011;53098;47.658;8.578;2022-10-16T00:42:40;13.80;;;2.03;;
66298;SDS011;53098;47.658;8.578;2022-10-16T00:45:05;14.63;;;1.60;;
66298;SDS011;53098;47.658;8.578;2022-10-16T00:47:39;5.18;;;1.20;;
66298;SDS011;53098;47.658;8.578;2022-10-16T00:50:18;5.28;;;1.33;;
66298;SDS011;53098;47.658;8.578;2022-10-16T00:52:46;7.28;;;1.70;;
66298;SDS011;53098;47.658;8.578;2022-10-16T00:55:12;7.10;;;1.55;;
66298;SDS011;53098;47.658;8.578;2022-10-16T00:57:38;4.65;;;1.33;;
66298;SDS011;53098;47.658;8.578;2022-10-16T01:00:04;4.60;;;1.60;;
66298;SDS011;53098;47.658;8.578;2022-10-16T01:02:30;6.80;;;1.80;;
66298;SDS011;53098;47.658;8.578;2022-10-16T01:04:56;7.82;;;1.77;;
66298;SDS011;53098;47.658;8.578;2022-10-16T01:07:45;8.57;;;2.00;;
66298;SDS011;53098;47.658;8.578;2022-10-16T01:12:54;9.45;;;2.05;;
66298;SDS011;53098;47.658;8.578;2022-10-16T01:15:27;8.88;;;1.95;;
66298;SDS011;53098;47.658;8.578;2022-10-16T01:17:58;7.15;;;2.05;;
66298;SDS011;53098;47.658;8.578;2022-10-16T01:20:42;6.55;;;1.90;;
66298;SDS011;53098;47.658;8.578;2022-10-16T01:28:31;9.35;;;1.80;;
66298;SDS011;53098;47.658;8.578;2022-10-16T01:30:58;9.25;;;2.15;;
66298;SDS011;53098;47.658;8.578;2022-10-16T01:33:28;5.57;;;1.52;;
66298;SDS011;53098;47.658;8.578;2022-10-16T01:35:59;6.03;;;1.58;;
66298;SDS011;53098;47.658;8.578;2022-10-16T01:38:33;7.40;;;1.67;;
66298;SDS011;53098;47.658;8.578;2022-10-16T01:41:01;3.83;;;1.90;;
66298;SDS011;53098;47.658;8.578;2022-10-16T01:43:28;11.85;;;1.90;;
66298;SDS011;53098;47.658;8.578;2022-10-16T01:45:57;8.70;;;1.40;;
66298;SDS011;53098;47.658;8.578;2022-10-16T01:48:24;12.80;;;1.48;;
66298;SDS011;53098;47.658;8.578;2022-10-16T01:51:22;8.65;;;1.40;;
66298;SDS011;53098;47.658;8.578;2022-10-16T01:53:41;10.23;;;1.75;;
66298;SDS011;53098;47.658;8.578;2022-10-16T01:56:09;3.63;;;1.55;;
66298;SDS011;53098;47.658;8.578;2022-10-16T01:58:37;16.98;;;2.45;;
66298;SDS011;53098;47.658;8.578;2022-10-16T02:01:04;11.52;;;1.70;;
66298;SDS011;53098;47.658;8.578;2022-10-16T02:03:32;9.23;;;1.88;;
66298;SDS011;53098;47.658;8.578;2022-10-16T02:05:59;9.77;;;1.83;;
66298;SDS011;53098;47.658;8.578;2022-10-16T02:08:27;11.88;;;1.73;;
66298;SDS011;53098;47.658;8.578;2022-10-16T02:10:54;6.28;;;1.75;;
66298;SDS011;53098;47.658;8.578;2022-10-16T02:13:26;8.68;;;1.83;;
66298;SDS011;53098;47.658;8.578;2022-10-16T02:15:53;14.93;;;1.75;;
66298;SDS011;53098;47.658;8.578;2022-10-16T02:18:18;8.05;;;1.60;;
66298;SDS011;53098;47.658;8.578;2022-10-16T02:23:14;2.42;;;1.45;;
66298;SDS011;53098;47.658;8.578;2022-10-16T02:25:40;8.85;;;1.60;;
66298;SDS011;53098;47.658;8.578;2022-10-16T02:28:17;7.30;;;1.80;;
66298;SDS011;53098;47.658;8.578;2022-10-16T02:33:13;14.90;;;1.75;;
66298;SDS011;53098;47.658;8.578;2022-10-16T02:35:40;8.27;;;1.70;;
66298;SDS011;53098;47.658;8.578;2022-10-16T02:38:06;5.10;;;1.52;;
66298;SDS011;53098;47.658;8.578;2022-10-16T02:40:34;5.38;;;1.60;;
66298;SDS011;53098;47.658;8.578;2022-10-16T02:43:02;5.75;;;1.60;;
66298;SDS011;53098;47.658;8.578;2022-10-16T02:45:28;4.60;;;1.52;;
66298;SDS011;53098;47.658;8.578;2022-10-16T02:47:54;5.88;;;1.42;;
66298;SDS011;53098;47.658;8.578;2022-10-16T02:50:19;13.38;;;1.75;;
66298;SDS011;53098;47.658;8.578;2022-10-16T02:52:45;4.17;;;1.40;;
66298;SDS011;53098;47.658;8.578;2022-10-16T02:55:11;10.52;;;1.85;;
66298;SDS011;53098;47.658;8.578;2022-10-16T02:57:37;9.38;;;1.60;;
66298;SDS011;53098;47.658;8.578;2022-10-16T03:00:03;7.57;;;2.90;;
66298;SDS011;53098;47.658;8.578;2022-10-16T03:02:31;5.85;;;1.80;;
66298;SDS011;53098;47.658;8.578;2022-10-16T03:04:56;5.47;;;1.60;;
66298;SDS011;53098;47.658;8.578;2022-10-16T03:07:25;7.35;;;1.92;;
66298;SDS011;53098;47.658;8.578;2022-10-16T03:09:51;16.75;;;2.10;;
66298;SDS011;53098;47.658;8.578;2022-10-16T03:12:16;7.88;;;2.03;;
66298;SDS011;53098;47.658;8.578;2022-10-16T03:14:42;5.90;;;1.90;;
66298;SDS011;53098;47.658;8.578;2022-10-16T03:17:07;8.45;;;2.45;;
66298;SDS011;53098;47.658;8.578;2022-10-16T03:19:32;10.70;;;1.90;;
66298;SDS011;53098;47.658;8.578;2022-10-16T03:21:58;9.10;;;1.73;;
66298;SDS011;53098;47.658;8.578;2022-10-16T03:24:23;7.25;;;1.85;;
66298;SDS011;53098;47.658;8.578;2022-10-16T03:26:49;6.53;;;2.13;;
66298;SDS011;53098;47.658;8.578;2022-10-16T03:29:14;9.25;;;4.68;;
66298;SDS011;53098;47.658;8.578;2022-10-16T03:31:40;7.70;;;2.60;;
66298;SDS011;53098;47.658;8.578;2022-10-16T03:34:05;11.15;;;1.60;;
66298;SDS011;53098;47.658;8.578;2022-10-16T03:36:31;5.75;;;1.52;;
66298;SDS011;53098;47.658;8.578;2022-10-16T03:38:56;11.57;;;1.63;;
66298;SDS011;53098;47.658;8.578;2022-10-16T03:41:21;3.60;;;1.63;;
66298;SDS011;53098;47.658;8.578;2022-10-16T03:43:47;6.55;;;1.55;;
66298;SDS011;53098;47.658;8.578;2022-10-16T03:46:12;4.93;;;1.55;;
66298;SDS011;53098;47.658;8.578;2022-10-16T03:48:38;5.90;;;2.30;;
66298;SDS011;53098;47.658;8.578;2022-10-16T03:51:03;14.80;;;1.92;;
66298;SDS011;53098;47.658;8.578;2022-10-16T03:53:29;5.70;;;1.85;;
66298;SDS011;53098;47.658;8.578;2022-10-16T03:55:54;6.68;;;1.55;;
66298;SDS011;53098;47.658;8.578;2022-10-16T03:58:20;4.77;;;1.63;;
66298;SDS011;53098;47.658;8.578;2022-10-16T04:00:45;11.90;;;1.70;;
66298;SDS011;53098;47.658;8.578;2022-10-16T04:03:11;7.97;;;1.90;;
66298;SDS011;53098;47.658;8.578;2022-10-16T04:05:36;7.18;;;1.63;;
66298;SDS011;53098;47.658;8.578;2022-10-16T04:08:02;6.00;;;1.63;;
66298;SDS011;53098;47.658;8.578;2022-10-16T04:10:28;7.10;;;1.70;;
66298;SDS011;53098;47.658;8.578;2022-10-16T04:12:57;9.45;;;1.65;;
66298;SDS011;53098;47.658;8.578;2022-10-16T04:15:25;4.50;;;1.45;;
66298;SDS011;53098;47.658;8.578;2022-10-16T04:17:51;4.28;;;1.52;;
66298;SDS011;53098;47.658;8.578;2022-10-16T04:20:16;6.80;;;1.50;;
66298;SDS011;53098;47.658;8.578;2022-10-16T04:22:42;12.18;;;1.50;;
66298;SDS011;53098;47.658;8.578;2022-10-16T04:25:10;6.05;;;1.33;;
66298;SDS011;53098;47.658;8.578;2022-10-16T04:27:35;4.13;;;1.42;;
66298;SDS011;53098;47.658;8.578;2022-10-16T04:30:01;3.40;;;1.20;;
66298;SDS011;53098;47.658;8.578;2022-10-16T04:32:26;3.17;;;1.42;;
66298;SDS011;53098;47.658;8.578;2022-10-16T04:34:52;6.53;;;1.80;;
66298;SDS011;53098;47.658;8.578;2022-10-16T04:37:18;14.88;;;1.63;;
66298;SDS011;53098;47.658;8.578;2022-10-16T04:39:43;3.10;;;1.45;;
66298;SDS011;53098;47.658;8.578;2022-10-16T04:42:09;11.25;;;1.77;;
66298;SDS011;53098;47.658;8.578;2022-10-16T04:44:34;10.52;;;1.90;;
66298;SDS011;53098;47.658;8.578;2022-10-16T04:47:00;20.65;;;2.30;;
66298;SDS011;53098;47.658;8.578;2022-10-16T04:49:26;8.95;;;2.17;;
66298;SDS011;53098;47.658;8.578;2022-10-16T04:51:51;8.45;;;2.22;;
66298;SDS011;53098;47.658;8.578;2022-10-16T04:54:17;13.95;;;3.30;;
66298;SDS011;53098;47.658;8.578;2022-10-16T04:56:42;6.68;;;1.80;;
66298;SDS011;53098;47.658;8.578;2022-10-16T04:59:11;9.30;;;2.17;;
66298;SDS011;53098;47.658;8.578;2022-10-16T05:01:36;11.05;;;2.42;;
66298;SDS011;53098;47.658;8.578;2022-10-16T05:04:04;5.82;;;2.15;;
66298;SDS011;53098;47.658;8.578;2022-10-16T05:06:30;7.28;;;2.38;;
66298;SDS011;53098;47.658;8.578;2022-10-16T05:08:56;8.18;;;2.05;;
66298;SDS011;53098;47.658;8.578;2022-10-16T05:11:24;8.20;;;2.15;;
66298;SDS011;53098;47.658;8.578;2022-10-16T05:13:49;4.65;;;2.10;;
66298;SDS011;53098;47.658;8.578;2022-10-16T05:16:15;10.43;;;2.65;;
66298;SDS011;53098;47.658;8.578;2022-10-16T05:18:40;5.65;;;2.00;;
66298;SDS011;53098;47.658;8.578;2022-10-16T05:21:06;5.45;;;2.05;;
66298;SDS011;53098;47.658;8.578;2022-10-16T05:23:31;5.53;;;2.13;;
66298;SDS011;53098;47.658;8.578;2022-10-16T05:25:57;11.85;;;3.33;;
66298;SDS011;53098;47.658;8.578;2022-10-16T05:28:27;16.85;;;2.70;;
66298;SDS011;53098;47.658;8.578;2022-10-16T05:30:53;10.02;;;1.92;;
66298;SDS011;53098;47.658;8.578;2022-10-16T05:33:20;9.75;;;2.38;;
66298;SDS011;53098;47.658;8.578;2022-10-16T05:35:45;9.30;;;2.08;;
66298;SDS011;53098;47.658;8.578;2022-10-16T05:38:11;7.55;;;2.63;;
66298;SDS011;53098;47.658;8.578;2022-10-16T05:40:36;10.48;;;2.40;;
66298;SDS011;53098;47.658;8.578;2022-10-16T05:43:02;13.07;;;2.85;;
66298;SDS011;53098;47.658;8.578;2022-10-16T05:45:27;8.05;;;2.42;;
66298;SDS011;53098;47.658;8.578;2022-10-16T05:47:53;14.85;;;2.60;;
66298;SDS011;53098;47.658;8.578;2022-10-16T05:50:18;16.80;;;2.77;;
66298;SDS011;53098;47.658;8.578;2022-10-16T05:52:43;12.80;;;2.58;;
66298;SDS011;53098;47.658;8.578;2022-10-16T05:55:09;6.70;;;2.63;;
66298;SDS011;53098;47.658;8.578;2022-10-16T05:57:35;7.70;;;2.28;;
66298;SDS011;53098;47.658;8.578;2022-10-16T06:00:01;12.02;;;2.67;;
66298;SDS011;53098;47.658;8.578;2022-10-16T06:02:26;10.27;;;1.90;;
66298;SDS011;53098;47.658;8.578;2022-10-16T06:04:52;14.88;;;2.40;;
66298;SDS011;53098;47.658;8.578;2022-10-16T06:07:18;15.13;;;3.63;;
66298;SDS011;53098;47.658;8.578;2022-10-16T06:09:43;9.95;;;2.90;;
66298;SDS011;53098;47.658;8.578;2022-10-16T06:12:09;12.27;;;3.05;;
66298;SDS011;53098;47.658;8.578;2022-10-16T06:14:34;17.00;;;5.10;;
66298;SDS011;53098;47.658;8.578;2022-10-16T06:17:00;14.75;;;4.25;;
66298;SDS011;53098;47.658;8.578;2022-10-16T06:19:25;16.35;;;4.53;;
66298;SDS011;53098;47.658;8.578;2022-10-16T06:21:51;14.75;;;4.63;;
66298;SDS011;53098;47.658;8.578;2022-10-16T06:24:17;20.13;;;4.68;;
66298;SDS011;53098;47.658;8.578;2022-10-16T06:26:42;13.88;;;4.63;;
66298;SDS011;53098;47.658;8.578;2022-10-16T06:29:08;24.92;;;4.70;;
66298;SDS011;53098;47.658;8.578;2022-10-16T06:31:33;17.67;;;5.25;;
66298;SDS011;53098;47.658;8.578;2022-10-16T06:33:59;12.68;;;4.68;;
66298;SDS011;53098;47.658;8.578;2022-10-16T06:36:24;10.35;;;4.43;;
66298;SDS011;53098;47.658;8.578;2022-10-16T06:38:50;10.25;;;3.00;;
66298;SDS011;53098;47.658;8.578;2022-10-16T06:41:16;14.70;;;3.70;;
66298;SDS011;53098;47.658;8.578;2022-10-16T06:43:44;11.52;;;3.45;;
66298;SDS011;53098;47.658;8.578;2022-10-16T06:46:10;8.73;;;3.40;;
66298;SDS011;53098;47.658;8.578;2022-10-16T06:48:36;13.52;;;3.63;;
66298;SDS011;53098;47.658;8.578;2022-10-16T06:51:03;13.15;;;3.45;;
66298;SDS011;53098;47.658;8.578;2022-10-16T06:53:33;9.95;;;3.47;;
66298;SDS011;53098;47.658;8.578;2022-10-16T06:56:21;12.13;;;4.25;;
66298;SDS011;53098;47.658;8.578;2022-10-16T06:58:45;11.38;;;3.40;;
66298;SDS011;53098;47.658;8.578;2022-10-16T07:01:12;14.48;;;3.38;;
66298;SDS011;53098;47.658;8.578;2022-10-16T07:03:38;9.45;;;3.17;;
66298;SDS011;53098;47.658;8.578;2022-10-16T07:06:05;9.05;;;3.70;;
66298;SDS011;53098;47.658;8.578;2022-10-16T07:08:31;6.88;;;2.85;;
66298;SDS011;53098;47.658;8.578;2022-10-16T07:11:00;13.20;;;2.60;;
66298;SDS011;53098;47.658;8.578;2022-10-16T07:13:26;5.53;;;2.28;;
66298;SDS011;53098;47.658;8.578;2022-10-16T07:15:52;9.95;;;2.58;;
66298;SDS011;53098;47.658;8.578;2022-10-16T07:18:17;8.18;;;2.53;;
66298;SDS011;53098;47.658;8.578;2022-10-16T07:20:43;8.13;;;3.20;;
66298;SDS011;53098;47.658;8.578;2022-10-16T07:23:09;10.10;;;2.95;;
66298;SDS011;53098;47.658;8.578;2022-10-16T07:25:35;6.65;;;2.22;;
66298;SDS011;53098;47.658;8.578;2022-10-16T07:28:01;6.80;;;2.53;;
66298;SDS011;53098;47.658;8.578;2022-10-16T07:30:27;5.75;;;2.67;;
66298;SDS011;53098;47.658;8.578;2022-10-16T07:32:52;10.35;;;4.43;;
66298;SDS011;53098;47.658;8.578;2022-10-16T07:35:20;8.60;;;3.97;;
66298;SDS011;53098;47.658;8.578;2022-10-16T07:37:45;17.67;;;4.75;;
66298;SDS011;53098;47.658;8.578;2022-10-16T07:40:14;12.68;;;3.92;;
66298;SDS011;53098;47.658;8.578;2022-10-16T07:42:39;8.73;;;3.88;;
66298;SDS011;53098;47.658;8.578;2022-10-16T07:45:05;11.20;;;3.38;;
66298;SDS011;53098;47.658;8.578;2022-10-16T07:47:31;5.68;;;2.53;;
66298;SDS011;53098;47.658;8.578;2022-10-16T07:49:57;10.32;;;2.25;;
66298;SDS011;53098;47.658;8.578;2022-10-16T07:52:26;5.95;;;2.10;;
66298;SDS011;53098;47.658;8.578;2022-10-16T07:54:51;6.13;;;2.20;;
66298;SDS011;53098;47.658;8.578;2022-10-16T07:57:17;5.68;;;1.67;;
66298;SDS011;53098;47.658;8.578;2022-10-16T07:59:46;5.45;;;2.20;;
66298;SDS011;53098;47.658;8.578;2022-10-16T08:02:11;5.40;;;1.85;;
66298;SDS011;53098;47.658;8.578;2022-10-16T08:04:38;24.15;;;2.63;;
66298;SDS011;53098;47.658;8.578;2022-10-16T08:07:04;4.70;;;1.90;;
66298;SDS011;53098;47.658;8.578;2022-10-16T08:09:29;5.82;;;2.28;;
66298;SDS011;53098;47.658;8.578;2022-10-16T08:11:55;6.10;;;1.92;;
66298;SDS011;53098;47.658;8.578;2022-10-16T08:14:21;6.90;;;1.98;;
66298;SDS011;53098;47.658;8.578;2022-10-16T08:16:46;10.20;;;1.95;;
66298;SDS011;53098;47.658;8.578;2022-10-16T08:19:20;4.38;;;1.65;;
66298;SDS011;53098;47.658;8.578;2022-10-16T08:21:47;5.88;;;1.80;;
66298;SDS011;53098;47.658;8.578;2022-10-16T08:24:13;5.28;;;1.83;;
66298;SDS011;53098;47.658;8.578;2022-10-16T08:26:38;7.70;;;2.10;;
66298;SDS011;53098;47.658;8.578;2022-10-16T08:29:04;6.28;;;2.10;;
66298;SDS011;53098;47.658;8.578;2022-10-16T08:31:30;13.30;;;2.17;;
66298;SDS011;53098;47.658;8.578;2022-10-16T08:33:58;4.38;;;1.92;;
66298;SDS011;53098;47.658;8.578;2022-10-16T08:36:25;8.40;;;2.53;;
66298;SDS011;53098;47.658;8.578;2022-10-16T08:38:50;5.05;;;1.77;;
66298;SDS011;53098;47.658;8.578;2022-10-16T08:48:57;4.22;;;1.77;;
66298;SDS011;53098;47.658;8.578;2022-10-16T08:51:27;3.35;;;1.83;;
66298;SDS011;53098;47.658;8.578;2022-10-16T08:54:01;6.50;;;1.88;;
66298;SDS011;53098;47.658;8.578;2022-10-16T08:56:28;5.95;;;1.65;;
66298;SDS011;53098;47.658;8.578;2022-10-16T08:58:53;3.33;;;1.63;;
66298;SDS011;53098;47.658;8.578;2022-10-16T09:01:20;4.97;;;2.60;;
66298;SDS011;53098;47.658;8.578;2022-10-16T09:12:25;3.35;;;1.73;;
66298;SDS011;53098;47.658;8.578;2022-10-16T09:17:49;3.65;;;1.65;;
66298;SDS011;53098;47.658;8.578;2022-10-16T09:22:39;3.05;;;1.55;;
66298;SDS011;53098;47.658;8.578;2022-10-16T09:25:10;7.63;;;1.73;;
66298;SDS011;53098;47.658;8.578;2022-10-16T09:27:36;3.33;;;1.75;;
66298;SDS011;53098;47.658;8.578;2022-10-16T09:30:10;5.55;;;1.50;;
66298;SDS011;53098;47.658;8.578;2022-10-16T09:32:35;3.20;;;1.50;;
66298;SDS011;53098;47.658;8.578;2022-10-16T09:35:03;3.97;;;1.40;;
66298;SDS011;53098;47.658;8.578;2022-10-16T09:37:28;3.72;;;1.33;;
66298;SDS011;53098;47.658;8.578;2022-10-16T09:39:54;2.85;;;1.52;;
66298;SDS011;53098;47.658;8.578;2022-10-16T09:42:21;3.13;;;1.30;;
66298;SDS011;53098;47.658;8.578;2022-10-16T09:44:48;4.50;;;1.35;;
66298;SDS011;53098;47.658;8.578;2022-10-16T09:47:15;2.47;;;1.30;;
66298;SDS011;53098;47.658;8.578;2022-10-16T09:49:50;3.85;;;1.20;;
66298;SDS011;53098;47.658;8.578;2022-10-16T09:52:16;5.53;;;1.65;;
66298;SDS011;53098;47.658;8.578;2022-10-16T09:54:55;4.38;;;1.17;;
66298;SDS011;53098;47.658;8.578;2022-10-16T09:57:21;5.15;;;1.45;;
66298;SDS011;53098;47.658;8.578;2022-10-16T10:02:13;3.20;;;1.10;;
66298;SDS011;53098;47.658;8.578;2022-10-16T10:04:52;7.18;;;1.20;;
66298;SDS011;53098;47.658;8.578;2022-10-16T10:07:21;2.30;;;1.10;;
66298;SDS011;53098;47.658;8.578;2022-10-16T10:09:49;3.45;;;1.02;;
66298;SDS011;53098;47.658;8.578;2022-10-16T10:12:25;3.20;;;1.10;;
66298;SDS011;53098;47.658;8.578;2022-10-16T10:14:53;2.38;;;1.20;;
66298;SDS011;53098;47.658;8.578;2022-10-16T10:17:21;7.43;;;1.30;;
66298;SDS011;53098;47.658;8.578;2022-10-16T10:22:43;4.25;;;1.00;;
66298;SDS011;53098;47.658;8.578;2022-10-16T10:30:35;4.40;;;1.00;;
66298;SDS011;53098;47.658;8.578;2022-10-16T10:40:40;1.58;;;0.77;;
66298;SDS011;53098;47.658;8.578;2022-10-16T10:43:13;4.28;;;1.00;;
66298;SDS011;53098;47.658;8.578;2022-10-16T10:45:44;3.42;;;1.17;;
66298;SDS011;53098;47.658;8.578;2022-10-16T10:50:45;2.85;;;1.35;;
66298;SDS011;53098;47.658;8.578;2022-10-16T10:53:33;3.70;;;0.98;;
66298;SDS011;53098;47.658;8.578;2022-10-16T10:58:39;4.60;;;1.10;;
66298;SDS011;53098;47.658;8.578;2022-10-16T11:01:14;3.20;;;0.82;;
66298;SDS011;53098;47.658;8.578;2022-10-16T11:03:53;2.58;;;0.90;;
66298;SDS011;53098;47.658;8.578;2022-10-16T11:06:29;3.83;;;0.80;;
66298;SDS011;53098;47.658;8.578;2022-10-16T11:09:30;4.15;;;1.30;;
66298;SDS011;53098;47.658;8.578;2022-10-16T11:11:53;2.97;;;0.80;;
66298;SDS011;53098;47.658;8.578;2022-10-16T11:24:37;4.88;;;1.02;;
66298;SDS011;53098;47.658;8.578;2022-10-16T11:27:07;4.13;;;1.10;;
66298;SDS011;53098;47.658;8.578;2022-10-16T11:29:33;5.53;;;1.10;;
66298;SDS011;53098;47.658;8.578;2022-10-16T11:32:04;4.35;;;1.10;;
66298;SDS011;53098;47.658;8.578;2022-10-16T11:37:30;3.03;;;1.10;;
66298;SDS011;53098;47.658;8.578;2022-10-16T11:39:59;3.95;;;0.93;;
66298;SDS011;53098;47.658;8.578;2022-10-16T11:42:33;2.40;;;0.80;;
66298;SDS011;53098;47.658;8.578;2022-10-16T11:45:08;1.98;;;1.00;;
66298;SDS011;53098;47.658;8.578;2022-10-16T11:47:43;2.47;;;0.95;;
66298;SDS011;53098;47.658;8.578;2022-10-16T11:50:22;3.75;;;1.00;;
66298;SDS011;53098;47.658;8.578;2022-10-16T11:55:20;3.83;;;0.90;;
66298;SDS011;53098;47.658;8.578;2022-10-16T11:57:53;4.40;;;1.20;;
66298;SDS011;53098;47.658;8.578;2022-10-16T12:03:18;3.08;;;1.05;;
66298;SDS011;53098;47.658;8.578;2022-10-16T12:06:09;2.28;;;0.98;;
66298;SDS011;53098;47.658;8.578;2022-10-16T12:08:36;2.53;;;1.05;;
66298;SDS011;53098;47.658;8.578;2022-10-16T12:13:46;3.75;;;0.90;;
66298;SDS011;53098;47.658;8.578;2022-10-16T12:18:38;3.03;;;1.20;;
66298;SDS011;53098;47.658;8.578;2022-10-16T12:21:07;2.65;;;0.90;;
66298;SDS011;53098;47.658;8.578;2022-10-16T12:23:37;3.72;;;1.50;;
66298;SDS011;53098;47.658;8.578;2022-10-16T12:26:03;5.32;;;0.90;;
66298;SDS011;53098;47.658;8.578;2022-10-16T12:28:30;3.47;;;1.30;;
66298;SDS011;53098;47.658;8.578;2022-10-16T12:33:26;5.55;;;1.20;;
66298;SDS011;53098;47.658;8.578;2022-10-16T12:35:52;2.63;;;1.15;;
66298;SDS011;53098;47.658;8.578;2022-10-16T12:40:44;4.20;;;0.90;;
66298;SDS011;53098;47.658;8.578;2022-10-16T12:43:12;1.30;;;0.70;;
66298;SDS011;53098;47.658;8.578;2022-10-16T12:45:38;2.13;;;0.90;;
66298;SDS011;53098;47.658;8.578;2022-10-16T12:48:17;3.70;;;1.05;;
66298;SDS011;53098;47.658;8.578;2022-10-16T12:50:44;4.38;;;0.73;;
66298;SDS011;53098;47.658;8.578;2022-10-16T12:53:43;3.13;;;1.00;;
66298;SDS011;53098;47.658;8.578;2022-10-16T12:56:19;2.42;;;1.00;;
66298;SDS011;53098;47.658;8.578;2022-10-16T13:09:01;2.92;;;1.00;;
66298;SDS011;53098;47.658;8.578;2022-10-16T13:17:01;4.22;;;0.82;;
66298;SDS011;53098;47.658;8.578;2022-10-16T13:22:06;5.07;;;1.13;;
66298;SDS011;53098;47.658;8.578;2022-10-16T13:24:59;7.93;;;1.35;;
66298;SDS011;53098;47.658;8.578;2022-10-16T13:27:38;3.08;;;0.82;;
66298;SDS011;53098;47.658;8.578;2022-10-16T13:30:17;1.60;;;0.93;;
66298;SDS011;53098;47.658;8.578;2022-10-16T13:32:47;2.60;;;0.82;;
66298;SDS011;53098;47.658;8.578;2022-10-16T13:35:47;4.43;;;1.08;;
66298;SDS011;53098;47.658;8.578;2022-10-16T13:40:31;4.32;;;0.88;;
66298;SDS011;53098;47.658;8.578;2022-10-16T13:42:59;4.35;;;0.82;;
66298;SDS011;53098;47.658;8.578;2022-10-16T13:45:25;5.32;;;1.23;;
66298;SDS011;53098;47.658;8.578;2022-10-16T13:48:01;9.02;;;1.13;;
66298;SDS011;53098;47.658;8.578;2022-10-16T13:50:29;2.50;;;1.10;;
66298;SDS011;53098;47.658;8.578;2022-10-16T13:53:09;2.28;;;0.90;;
66298;SDS011;53098;47.658;8.578;2022-10-16T13:55:38;11.80;;;1.30;;
66298;SDS011;53098;47.658;8.578;2022-10-16T13:58:21;4.93;;;1.20;;
66298;SDS011;53098;47.658;8.578;2022-10-16T14:00:58;4.72;;;0.88;;
66298;SDS011;53098;47.658;8.578;2022-10-16T14:03:24;2.15;;;1.20;;
66298;SDS011;53098;47.658;8.578;2022-10-16T14:05:54;3.10;;;1.08;;
66298;SDS011;53098;47.658;8.578;2022-10-16T14:08:22;2.30;;;0.70;;
66298;SDS011;53098;47.658;8.578;2022-10-16T14:10:49;2.80;;;1.10;;
66298;SDS011;53098;47.658;8.578;2022-10-16T14:13:17;3.75;;;0.90;;
66298;SDS011;53098;47.658;8.578;2022-10-16T14:18:20;3.65;;;0.93;;
66298;SDS011;53098;47.658;8.578;2022-10-16T14:20:47;2.03;;;0.93;;
66298;SDS011;53098;47.658;8.578;2022-10-16T14:23:23;4.85;;;0.88;;
66298;SDS011;53098;47.658;8.578;2022-10-16T14:25:53;7.25;;;1.08;;
66298;SDS011;53098;47.658;8.578;2022-10-16T14:28:22;4.22;;;0.98;;
66298;SDS011;53098;47.658;8.578;2022-10-16T14:30:58;5.90;;;1.90;;
66298;SDS011;53098;47.658;8.578;2022-10-16T14:33:30;6.45;;;2.10;;
66298;SDS011;53098;47.658;8.578;2022-10-16T14:36:00;7.22;;;2.42;;
66298;SDS011;53098;47.658;8.578;2022-10-16T14:38:26;5.75;;;1.40;;
66298;SDS011;53098;47.658;8.578;2022-10-16T14:40:52;3.67;;;1.00;;
66298;SDS011;53098;47.658;8.578;2022-10-16T14:43:20;2.53;;;0.98;;
66298;SDS011;53098;47.658;8.578;2022-10-16T14:45:49;3.55;;;0.93;;
66298;SDS011;53098;47.658;8.578;2022-10-16T14:48:17;7.63;;;1.02;;
66298;SDS011;53098;47.658;8.578;2022-10-16T14:50:44;6.50;;;1.02;;
66298;SDS011;53098;47.658;8.578;2022-10-16T14:53:13;4.82;;;0.90;;
66298;SDS011;53098;47.658;8.578;2022-10-16T14:55:38;1.85;;;1.02;;
66298;SDS011;53098;47.658;8.578;2022-10-16T14:58:04;2.80;;;0.95;;
66298;SDS011;53098;47.658;8.578;2022-10-16T15:00:30;3.78;;;0.85;;
66298;SDS011;53098;47.658;8.578;2022-10-16T15:02:57;5.70;;;1.20;;
66298;SDS011;53098;47.658;8.578;2022-10-16T15:05:26;7.18;;;1.20;;
66298;SDS011;53098;47.658;8.578;2022-10-16T15:07:55;2.63;;;0.82;;
66298;SDS011;53098;47.658;8.578;2022-10-16T15:10:21;3.97;;;0.90;;
66298;SDS011;53098;47.658;8.578;2022-10-16T15:12:47;5.22;;;1.00;;
66298;SDS011;53098;47.658;8.578;2022-10-16T15:15:21;2.55;;;1.15;;
66298;SDS011;53098;47.658;8.578;2022-10-16T15:17:49;4.45;;;0.90;;
66298;SDS011;53098;47.658;8.578;2022-10-16T15:20:15;4.47;;;0.85;;
66298;SDS011;53098;47.658;8.578;2022-10-16T15:22:40;3.85;;;1.00;;
66298;SDS011;53098;47.658;8.578;2022-10-16T15:28:01;4.13;;;1.20;;
66298;SDS011;53098;47.658;8.578;2022-10-16T15:30:27;7.68;;;1.17;;
66298;SDS011;53098;47.658;8.578;2022-10-16T15:32:52;9.52;;;1.60;;
66298;SDS011;53098;47.658;8.578;2022-10-16T15:35:18;9.73;;;1.95;;
66298;SDS011;53098;47.658;8.578;2022-10-16T15:37:44;10.30;;;1.48;;
66298;SDS011;53098;47.658;8.578;2022-10-16T15:40:10;12.48;;;1.20;;
66298;SDS011;53098;47.658;8.578;2022-10-16T15:42:35;8.00;;;1.30;;
66298;SDS011;53098;47.658;8.578;2022-10-16T15:45:01;10.45;;;1.23;;
66298;SDS011;53098;47.658;8.578;2022-10-16T15:47:26;10.75;;;1.30;;
66298;SDS011;53098;47.658;8.578;2022-10-16T15:49:51;11.40;;;1.58;;
66298;SDS011;53098;47.658;8.578;2022-10-16T15:52:17;14.73;;;1.20;;
66298;SDS011;53098;47.658;8.578;2022-10-16T15:54:42;8.77;;;1.43;;
66298;SDS011;53098;47.658;8.578;2022-10-16T15:57:08;16.88;;;1.40;;
66298;SDS011;53098;47.658;8.578;2022-10-16T15:59:33;6.00;;;1.10;;
66298;SDS011;53098;47.658;8.578;2022-10-16T16:01:58;13.30;;;1.47;;
66298;SDS011;53098;47.658;8.578;2022-10-16T16:04:24;6.13;;;1.50;;
66298;SDS011;53098;47.658;8.578;2022-10-16T16:06:49;9.37;;;1.33;;
66298;SDS011;53098;47.658;8.578;2022-10-16T16:09:14;6.17;;;1.00;;
66298;SDS011;53098;47.658;8.578;2022-10-16T16:11:40;6.77;;;1.30;;
66298;SDS011;53098;47.658;8.578;2022-10-16T16:14:06;8.25;;;1.17;;
66298;SDS011;53098;47.658;8.578;2022-10-16T16:16:31;12.05;;;1.00;;
66298;SDS011;53098;47.658;8.578;2022-10-16T16:18:56;9.70;;;1.17;;
66298;SDS011;53098;47.658;8.578;2022-10-16T16:21:22;8.13;;;0.90;;
66298;SDS011;53098;47.658;8.578;2022-10-16T16:23:47;6.97;;;1.60;;
66298;SDS011;53098;47.658;8.578;2022-10-16T16:26:21;16.17;;;1.70;;
66298;SDS011;53098;47.658;8.578;2022-10-16T16:28:47;7.20;;;1.90;;
66298;SDS011;53098;47.658;8.578;2022-10-16T16:31:12;2.67;;;1.10;;
66298;SDS011;53098;47.658;8.578;2022-10-16T16:33:37;6.87;;;1.10;;
66298;SDS011;53098;47.658;8.578;2022-10-16T16:36:04;14.27;;;7.13;;
66298;SDS011;53098;47.658;8.578;2022-10-16T16:38:29;8.45;;;2.10;;
66298;SDS011;53098;47.658;8.578;2022-10-16T16:40:55;9.57;;;1.60;;
66298;SDS011;53098;47.658;8.578;2022-10-16T16:43:24;5.10;;;1.40;;